Panna Maria, TX

1:21 PM CDT on July 13, 2014 (GMT -0500)
Beeville (KBEA) Elev 269 ft | 28.37 °N, 97.80 °W | Change Station

Current weather conditions updated 6 minutes ago

Scattered Clouds
Scattered Clouds
94 °F
Feels Like 98 °F
N
4
Wind Variable Wind from East

Today is forecast to be nearly the same temperature as yesterday.

Today
High -- | Low -- °F
--% Chance of Precip.
Yesterday
High -- | Low -- °F
Precip. -- in
6:42 AM 8:32 PM
Full, 97% visible
Pressure 30.08 in
Visibility 10.0 miles
Clouds Scattered Clouds 5000 ft
Heat Index 98 °F
Dew Point 68 °F
Humidity 41%
Rainfall 0.00 in
Snow Depth Not available.
UV 10 out of 12
Pollen 3.20 out of 12
Air Quality Not available.
Flu Activity Sporadic
METAR KBEA 131815Z AUTO 10003KT 10SM SCT050 35/20 A3008 RMK AO2 T03470198

More Conditions Fewer Conditions

Pressure 30.08 in
Visibility 10.0 miles
Clouds Scattered Clouds 5000 ft
Heat Index 98 °F
Dew Point 68 °F
Humidity 41%
Rainfall 0.00 in
Snow Depth Not available.
UV 10 out of 12
Pollen 3.20 out of 12
Air Quality Not available.
Flu Activity Sporadic
METAR KBEA 131815Z AUTO 10003KT 10SM SCT050 35/20 A3008 RMK AO2 T03470198

More Conditions Fewer Conditions

10-Day Weather Forecast

Almanac

Astronomy

Jul. 13, 2014 Rise Set
Actual Time 6:42 AM CDT 8:32 PM CDT
Civil Twilight 6:15 AM CDT 8:59 PM CDT
Nautical Twilight 5:43 AM CDT 9:31 PM CDT
Astronomical Twilight 5:09 AM CDT 10:04 PM CDT
Moon 9:35 PM CDT 8:03 AM CDT
Length of Visible Light 14h 43m
Length of Day
13h 50m
Tomorrow will be 0m 48s shorter.
Full, 97% of the Moon is Illuminated
Today
Full
Jul 18
Last Quarter
Jul 26
New
Aug 3
First Quarter
Aug 10
Full

Today's Extremes

State Highs State Lows

Community

WunderPhotos

Upload Photos

1,733,321 photos uploaded!

Nearby

Snow Depth

Station Depth Elevation
No new snow has been reported.

Earthquake Activity

City Distance Mag. Time & Date
No recent earthquake activity has been reported nearby.
Minimum magnitude displayed is 2.5.

Coastal Water Temperatures

Place Temperature
No Stations Reporting

Nearby Weather Stations

Station Location Temp. Heat Index Dew Point Humidity Wind Precip. Elev Updated Type
Karnes County, Karnes City, TX 91.0 °F 98 °F 72 °F 53% ENE  at  4.0 mph 0.00 in / hr 381 ft 1:21 PM CDT Rapid Fire
CR-303, Runge, TX 95.5 °F 105 °F 73 °F 48% South  at  8.3 mph - / hr 331 ft 1:15 PM CDT Normal

Show More Stations Show Fewer Stations